GVAC/SID METAR and TAF weather

Enter ICAO airport designator
Station Type Date Time Source
GVAC METAR 2021/07/26 17:00 UTC NOAA

GVAC 261700Z 02011KT 9999 SCT014 28/20 Q1014 NOSIG


Station Type Date Time Source
GVAC Decoded METAR 2021/07/26 17:00 UTC NOAA

Sal, Cape Verde (GVAC) 16-44N 022-57W 55M
Jul 26, 2021 - 01:00 PM EDT / 2021.07.26 1700 UTC
Wind: from the NNE (020 degrees) at 13 MPH (11 KT):0
Visibility: greater than 7 mile(s):0
Sky conditions: partly cloudy
Temperature: 82 F (28 C)
Dew Point: 68 F (20 C)
Relative Humidity: 61%
Pressure (altimeter): 29.94 in. Hg (1014 hPa)
ob: GVAC 261700Z 02011KT 9999 SCT014 28/20 Q1014 NOSIG
cycle: 17

Station Type Date Time Source
GVAC TAF 2021/07/26 12:57 UTC NOAA

TAF GVAC 261100Z 2612/2718 01010KT 9999 SCT014
TEMPO 2612/2616 07006KT

Example: see airport list